EZE weather

Ministro Pistarini International Airport
Buenos Aires, Buenos Aires Province, Argentina

Public forecast

Using degrees Celsius for public forecast. Weather courtesy of forecast.io.

METAR (pilot weather report)

Retrieved 2019/01/22 02:00 UTC (34 minutes ago):

SAEZ 220200Z 35005KT CAVOK 25/18 Q1011 NOSIG

TAF (pilot weather forecast)

Retrieved 2019/01/22 00:00 UTC (3 hours ago):

TAF SAEZ 212300Z 2200/2224 35005KT 330V010 CAVOK TX34/2219Z TN21/2209Z BECMG 2223/2224 5000 TSRA SCT025 FEW030CB OVC040